FR-0032 weather

Public forecast

Using degrees Celsius for public forecast. Weather courtesy of forecast.io.

Closest aviation weather report (METAR) to Centre d'Etude du C.E.A. Heliport

Closest report is Dijon-Bourgogne Airport, 20.4 nm (37.8 km) SSE. Retrieved 2020/08/13 13:30 UTC (19 minutes ago):

LFSD 131330Z AUTO 20007KT 150V270 CAVOK 32/10 Q1013

Closest aviation forecast (TAF) to Centre d'Etude du C.E.A. Heliport

Forecast is more than 12 hours old.

Closest forecast is Dijon-Bourgogne Airport, 20.4 nm (37.8 km) SSE. Retrieved 2015/06/01 00:11 UTC (5 years ago):

TAF LFSD 010600Z 0100/0124 CNL